sensor_id;sensor_type;location;lat;lon;timestamp;temperature;humidity
41435;DHT22;27177;22.262;114.192;2022-08-19T00:00:37;27.10;99.90
41435;DHT22;27177;22.262;114.192;2022-08-19T00:03:05;27.10;99.90
41435;DHT22;27177;22.262;114.192;2022-08-19T00:05:33;27.00;99.90
41435;DHT22;27177;22.262;114.192;2022-08-19T00:08:00;27.00;99.90
41435;DHT22;27177;22.262;114.192;2022-08-19T00:10:28;27.00;99.90
41435;DHT22;27177;22.262;114.192;2022-08-19T00:12:54;27.00;99.90
41435;DHT22;27177;22.262;114.192;2022-08-19T00:15:22;27.00;99.90
41435;DHT22;27177;22.262;114.192;2022-08-19T00:17:49;27.00;99.90
41435;DHT22;27177;22.262;114.192;2022-08-19T00:20:19;27.00;99.90
41435;DHT22;27177;22.262;114.192;2022-08-19T00:22:47;26.90;99.90
41435;DHT22;27177;22.262;114.192;2022-08-19T00:25:15;26.90;99.90
41435;DHT22;27177;22.262;114.192;2022-08-19T00:30:12;26.70;99.90
41435;DHT22;27177;22.262;114.192;2022-08-19T00:32:40;26.60;99.90
41435;DHT22;27177;22.262;114.192;2022-08-19T00:35:07;26.60;99.90
41435;DHT22;27177;22.262;114.192;2022-08-19T00:37:36;26.70;99.90
41435;DHT22;27177;22.262;114.192;2022-08-19T00:40:06;26.70;99.90
41435;DHT22;27177;22.262;114.192;2022-08-19T00:42:33;26.70;99.90
41435;DHT22;27177;22.262;114.192;2022-08-19T00:45:00;26.80;99.90
41435;DHT22;27177;22.262;114.192;2022-08-19T00:47:27;26.90;99.90
41435;DHT22;27177;22.262;114.192;2022-08-19T00:55:07;27.10;99.90
41435;DHT22;27177;22.262;114.192;2022-08-19T00:57:42;27.20;99.90
41435;DHT22;27177;22.262;114.192;2022-08-19T01:00:18;27.30;99.90
41435;DHT22;27177;22.262;114.192;2022-08-19T01:02:45;27.30;99.90
41435;DHT22;27177;22.262;114.192;2022-08-19T01:05:15;27.40;99.90
41435;DHT22;27177;22.262;114.192;2022-08-19T01:07:44;27.40;99.90
41435;DHT22;27177;22.262;114.192;2022-08-19T01:10:15;27.50;99.90
41435;DHT22;27177;22.262;114.192;2022-08-19T01:12:42;27.50;99.90
41435;DHT22;27177;22.262;114.192;2022-08-19T01:15:12;27.40;99.90
41435;DHT22;27177;22.262;114.192;2022-08-19T01:17:42;27.40;99.90
41435;DHT22;27177;22.262;114.192;2022-08-19T01:20:13;27.30;99.90
41435;DHT22;27177;22.262;114.192;2022-08-19T01:22:56;27.30;99.90
41435;DHT22;27177;22.262;114.192;2022-08-19T01:25:41;27.30;99.90
41435;DHT22;27177;22.262;114.192;2022-08-19T01:28:22;27.20;99.90
41435;DHT22;27177;22.262;114.192;2022-08-19T01:30:52;27.30;99.90
41435;DHT22;27177;22.262;114.192;2022-08-19T01:33:20;27.40;99.90
41435;DHT22;27177;22.262;114.192;2022-08-19T01:35:47;27.40;99.90
41435;DHT22;27177;22.262;114.192;2022-08-19T01:38:23;27.50;99.90
41435;DHT22;27177;22.262;114.192;2022-08-19T01:40:50;27.60;99.90
41435;DHT22;27177;22.262;114.192;2022-08-19T01:43:21;27.60;99.90
41435;DHT22;27177;22.262;114.192;2022-08-19T01:45:48;27.60;99.90
41435;DHT22;27177;22.262;114.192;2022-08-19T01:48:15;27.50;99.90
41435;DHT22;27177;22.262;114.192;2022-08-19T01:50:41;27.40;99.90
41435;DHT22;27177;22.262;114.192;2022-08-19T01:55:45;27.10;99.90
41435;DHT22;27177;22.262;114.192;2022-08-19T02:00:43;27.10;99.90
41435;DHT22;27177;22.262;114.192;2022-08-19T02:03:10;27.10;99.90
41435;DHT22;27177;22.262;114.192;2022-08-19T02:05:37;27.10;99.90
41435;DHT22;27177;22.262;114.192;2022-08-19T02:08:04;27.30;99.90
41435;DHT22;27177;22.262;114.192;2022-08-19T02:10:31;27.30;99.90
41435;DHT22;27177;22.262;114.192;2022-08-19T02:12:59;27.50;99.90
41435;DHT22;27177;22.262;114.192;2022-08-19T02:15:26;27.40;99.90
41435;DHT22;27177;22.262;114.192;2022-08-19T02:17:53;27.40;99.90
41435;DHT22;27177;22.262;114.192;2022-08-19T02:20:20;27.50;99.90
41435;DHT22;27177;22.262;114.192;2022-08-19T02:22:46;27.50;99.90
41435;DHT22;27177;22.262;114.192;2022-08-19T02:25:15;27.60;99.90
41435;DHT22;27177;22.262;114.192;2022-08-19T02:27:43;27.50;99.90
41435;DHT22;27177;22.262;114.192;2022-08-19T02:30:13;27.50;99.90
41435;DHT22;27177;22.262;114.192;2022-08-19T02:32:42;27.60;99.90
41435;DHT22;27177;22.262;114.192;2022-08-19T02:35:09;27.60;99.90
41435;DHT22;27177;22.262;114.192;2022-08-19T02:37:35;27.60;99.90
41435;DHT22;27177;22.262;114.192;2022-08-19T02:40:22;27.60;99.90
41435;DHT22;27177;22.262;114.192;2022-08-19T02:42:49;27.60;99.90
41435;DHT22;27177;22.262;114.192;2022-08-19T02:45:16;27.60;99.90
41435;DHT22;27177;22.262;114.192;2022-08-19T02:47:44;27.70;99.90
41435;DHT22;27177;22.262;114.192;2022-08-19T02:50:12;27.70;99.90
41435;DHT22;27177;22.262;114.192;2022-08-19T02:52:39;27.80;99.90
41435;DHT22;27177;22.262;114.192;2022-08-19T02:55:07;28.00;99.90
41435;DHT22;27177;22.262;114.192;2022-08-19T02:57:34;28.00;99.90
41435;DHT22;27177;22.262;114.192;2022-08-19T03:00:06;28.00;99.90
41435;DHT22;27177;22.262;114.192;2022-08-19T03:02:34;27.90;99.90
41435;DHT22;27177;22.262;114.192;2022-08-19T03:05:03;27.90;99.90
41435;DHT22;27177;22.262;114.192;2022-08-19T03:07:30;28.00;99.90
41435;DHT22;27177;22.262;114.192;2022-08-19T03:09:58;27.90;99.90
41435;DHT22;27177;22.262;114.192;2022-08-19T03:12:24;27.90;99.90
41435;DHT22;27177;22.262;114.192;2022-08-19T03:14:51;28.00;99.90
41435;DHT22;27177;22.262;114.192;2022-08-19T03:17:19;28.00;99.90
41435;DHT22;27177;22.262;114.192;2022-08-19T03:19:46;28.00;99.90
41435;DHT22;27177;22.262;114.192;2022-08-19T03:22:12;28.10;99.90
41435;DHT22;27177;22.262;114.192;2022-08-19T03:24:40;28.30;99.90
41435;DHT22;27177;22.262;114.192;2022-08-19T03:27:06;28.50;99.90
41435;DHT22;27177;22.262;114.192;2022-08-19T03:29:33;28.70;99.90
41435;DHT22;27177;22.262;114.192;2022-08-19T03:32:05;28.80;99.90
41435;DHT22;27177;22.262;114.192;2022-08-19T03:34:35;29.00;99.90
41435;DHT22;27177;22.262;114.192;2022-08-19T03:37:09;29.00;99.90
41435;DHT22;27177;22.262;114.192;2022-08-19T03:39:37;29.00;99.90
41435;DHT22;27177;22.262;114.192;2022-08-19T03:42:04;28.90;99.90
41435;DHT22;27177;22.262;114.192;2022-08-19T03:44:31;28.80;99.90
41435;DHT22;27177;22.262;114.192;2022-08-19T03:46:59;28.80;99.90
41435;DHT22;27177;22.262;114.192;2022-08-19T03:49:28;28.90;99.90
41435;DHT22;27177;22.262;114.192;2022-08-19T03:51:59;28.90;99.90
41435;DHT22;27177;22.262;114.192;2022-08-19T03:54:30;29.10;99.90
41435;DHT22;27177;22.262;114.192;2022-08-19T03:56:57;29.10;99.90
41435;DHT22;27177;22.262;114.192;2022-08-19T03:59:31;29.10;99.90
41435;DHT22;27177;22.262;114.192;2022-08-19T04:02:00;29.30;99.90
41435;DHT22;27177;22.262;114.192;2022-08-19T04:04:27;29.40;99.90
41435;DHT22;27177;22.262;114.192;2022-08-19T04:06:55;29.40;99.90
41435;DHT22;27177;22.262;114.192;2022-08-19T04:09:21;29.50;99.90
41435;DHT22;27177;22.262;114.192;2022-08-19T04:11:50;29.50;99.90
41435;DHT22;27177;22.262;114.192;2022-08-19T04:14:24;29.60;99.90
41435;DHT22;27177;22.262;114.192;2022-08-19T04:16:52;29.60;99.90
41435;DHT22;27177;22.262;114.192;2022-08-19T04:19:19;29.60;99.90
41435;DHT22;27177;22.262;114.192;2022-08-19T04:21:51;29.60;99.90
41435;DHT22;27177;22.262;114.192;2022-08-19T04:24:18;29.50;99.90
41435;DHT22;27177;22.262;114.192;2022-08-19T04:26:46;29.60;99.90
41435;DHT22;27177;22.262;114.192;2022-08-19T04:29:21;29.60;99.90
41435;DHT22;27177;22.262;114.192;2022-08-19T04:31:51;29.60;99.90
41435;DHT22;27177;22.262;114.192;2022-08-19T04:34:21;29.50;99.90
41435;DHT22;27177;22.262;114.192;2022-08-19T04:36:52;29.50;99.90
41435;DHT22;27177;22.262;114.192;2022-08-19T04:39:23;29.40;99.90
41435;DHT22;27177;22.262;114.192;2022-08-19T04:42:10;29.30;99.90
41435;DHT22;27177;22.262;114.192;2022-08-19T04:44:56;29.40;99.90
41435;DHT22;27177;22.262;114.192;2022-08-19T04:47:22;29.50;99.90
41435;DHT22;27177;22.262;114.192;2022-08-19T04:49:49;29.60;99.90
41435;DHT22;27177;22.262;114.192;2022-08-19T04:52:16;29.60;99.90
41435;DHT22;27177;22.262;114.192;2022-08-19T04:54:43;29.60;99.90
41435;DHT22;27177;22.262;114.192;2022-08-19T04:57:09;29.70;99.90
41435;DHT22;27177;22.262;114.192;2022-08-19T04:59:39;29.80;99.90
41435;DHT22;27177;22.262;114.192;2022-08-19T05:02:08;29.90;99.90
41435;DHT22;27177;22.262;114.192;2022-08-19T05:04:36;30.00;99.90
41435;DHT22;27177;22.262;114.192;2022-08-19T05:07:08;30.00;99.90
41435;DHT22;27177;22.262;114.192;2022-08-19T05:09:36;29.90;99.90
41435;DHT22;27177;22.262;114.192;2022-08-19T05:12:03;30.00;99.90
41435;DHT22;27177;22.262;114.192;2022-08-19T05:14:31;30.10;99.90
41435;DHT22;27177;22.262;114.192;2022-08-19T05:17:00;30.20;99.90
41435;DHT22;27177;22.262;114.192;2022-08-19T05:19:27;30.20;99.90
41435;DHT22;27177;22.262;114.192;2022-08-19T05:22:12;30.20;99.90
41435;DHT22;27177;22.262;114.192;2022-08-19T05:24:57;30.20;99.90
41435;DHT22;27177;22.262;114.192;2022-08-19T05:27:24;30.50;99.90
41435;DHT22;27177;22.262;114.192;2022-08-19T05:29:51;30.70;99.90
41435;DHT22;27177;22.262;114.192;2022-08-19T05:32:18;30.90;99.90
41435;DHT22;27177;22.262;114.192;2022-08-19T05:34:45;31.10;99.90
41435;DHT22;27177;22.262;114.192;2022-08-19T05:37:12;31.10;99.90
41435;DHT22;27177;22.262;114.192;2022-08-19T05:39:39;31.20;99.90
41435;DHT22;27177;22.262;114.192;2022-08-19T05:42:09;31.30;99.90
41435;DHT22;27177;22.262;114.192;2022-08-19T05:44:40;31.30;99.90
41435;DHT22;27177;22.262;114.192;2022-08-19T05:47:16;31.30;99.90
41435;DHT22;27177;22.262;114.192;2022-08-19T05:49:45;31.10;99.90
41435;DHT22;27177;22.262;114.192;2022-08-19T05:54:43;31.00;99.90
41435;DHT22;27177;22.262;114.192;2022-08-19T05:57:13;30.90;99.90
41435;DHT22;27177;22.262;114.192;2022-08-19T05:59:40;30.80;99.90
41435;DHT22;27177;22.262;114.192;2022-08-19T06:02:08;30.70;99.90
41435;DHT22;27177;22.262;114.192;2022-08-19T06:04:35;30.60;99.90
41435;DHT22;27177;22.262;114.192;2022-08-19T06:07:04;30.40;99.90
41435;DHT22;27177;22.262;114.192;2022-08-19T06:09:31;30.30;99.90
41435;DHT22;27177;22.262;114.192;2022-08-19T06:11:59;30.20;99.90
41435;DHT22;27177;22.262;114.192;2022-08-19T06:14:29;30.10;99.90
41435;DHT22;27177;22.262;114.192;2022-08-19T06:16:58;29.90;99.90
41435;DHT22;27177;22.262;114.192;2022-08-19T06:19:29;29.90;99.90
41435;DHT22;27177;22.262;114.192;2022-08-19T06:21:57;29.80;99.90
41435;DHT22;27177;22.262;114.192;2022-08-19T06:24:27;29.70;99.90
41435;DHT22;27177;22.262;114.192;2022-08-19T06:27:05;29.60;99.90
41435;DHT22;27177;22.262;114.192;2022-08-19T06:29:32;29.60;99.90
41435;DHT22;27177;22.262;114.192;2022-08-19T06:32:02;29.50;99.90
41435;DHT22;27177;22.262;114.192;2022-08-19T06:34:31;29.50;99.90
41435;DHT22;27177;22.262;114.192;2022-08-19T06:37:00;29.40;99.90
41435;DHT22;27177;22.262;114.192;2022-08-19T06:39:31;29.20;99.90
41435;DHT22;27177;22.262;114.192;2022-08-19T06:44:39;29.00;99.90
41435;DHT22;27177;22.262;114.192;2022-08-19T06:47:22;29.00;99.90
41435;DHT22;27177;22.262;114.192;2022-08-19T06:49:49;28.90;99.90
41435;DHT22;27177;22.262;114.192;2022-08-19T06:52:16;28.80;99.90
41435;DHT22;27177;22.262;114.192;2022-08-19T06:54:43;28.80;99.90
41435;DHT22;27177;22.262;114.192;2022-08-19T06:57:10;28.80;99.90
41435;DHT22;27177;22.262;114.192;2022-08-19T07:02:57;28.80;99.90
41435;DHT22;27177;22.262;114.192;2022-08-19T07:05:25;28.80;99.90
41435;DHT22;27177;22.262;114.192;2022-08-19T07:07:52;28.70;99.90
41435;DHT22;27177;22.262;114.192;2022-08-19T07:12:54;28.70;99.90
41435;DHT22;27177;22.262;114.192;2022-08-19T07:15:20;28.70;99.90
41435;DHT22;27177;22.262;114.192;2022-08-19T07:17:47;28.70;99.90
41435;DHT22;27177;22.262;114.192;2022-08-19T07:20:14;28.70;99.90
41435;DHT22;27177;22.262;114.192;2022-08-19T07:22:41;28.70;99.90
41435;DHT22;27177;22.262;114.192;2022-08-19T07:25:09;28.80;99.90
41435;DHT22;27177;22.262;114.192;2022-08-19T07:27:37;28.80;99.90
41435;DHT22;27177;22.262;114.192;2022-08-19T07:30:05;28.80;99.90
41435;DHT22;27177;22.262;114.192;2022-08-19T07:32:34;28.80;99.90
41435;DHT22;27177;22.262;114.192;2022-08-19T07:35:01;28.80;99.90
41435;DHT22;27177;22.262;114.192;2022-08-19T07:37:29;28.80;99.90
41435;DHT22;27177;22.262;114.192;2022-08-19T07:39:56;28.70;99.90
41435;DHT22;27177;22.262;114.192;2022-08-19T07:42:23;28.70;99.90
41435;DHT22;27177;22.262;114.192;2022-08-19T07:44:53;28.80;99.90
41435;DHT22;27177;22.262;114.192;2022-08-19T07:47:20;28.70;99.90
41435;DHT22;27177;22.262;114.192;2022-08-19T07:49:47;28.70;99.90
41435;DHT22;27177;22.262;114.192;2022-08-19T07:52:15;28.70;99.90
41435;DHT22;27177;22.262;114.192;2022-08-19T07:54:43;28.70;99.90
41435;DHT22;27177;22.262;114.192;2022-08-19T07:57:10;28.80;99.90
41435;DHT22;27177;22.262;114.192;2022-08-19T07:59:37;28.80;99.90
41435;DHT22;27177;22.262;114.192;2022-08-19T08:02:04;28.70;99.90
41435;DHT22;27177;22.262;114.192;2022-08-19T08:04:31;28.70;99.90
41435;DHT22;27177;22.262;114.192;2022-08-19T08:10:33;28.60;99.90
41435;DHT22;27177;22.262;114.192;2022-08-19T08:15:37;28.70;99.90
41435;DHT22;27177;22.262;114.192;2022-08-19T08:20:40;28.90;99.90
41435;DHT22;27177;22.262;114.192;2022-08-19T08:23:09;28.80;99.90
41435;DHT22;27177;22.262;114.192;2022-08-19T08:26:00;28.90;99.90
41435;DHT22;27177;22.262;114.192;2022-08-19T08:34:33;29.00;99.90
41435;DHT22;27177;22.262;114.192;2022-08-19T08:37:00;29.00;99.90
41435;DHT22;27177;22.262;114.192;2022-08-19T08:42:32;29.10;99.90
41435;DHT22;27177;22.262;114.192;2022-08-19T08:45:13;29.30;99.90
41435;DHT22;27177;22.262;114.192;2022-08-19T08:47:44;29.50;99.90
41435;DHT22;27177;22.262;114.192;2022-08-19T08:50:20;29.80;99.90
41435;DHT22;27177;22.262;114.192;2022-08-19T08:52:52;30.20;99.90
41435;DHT22;27177;22.262;114.192;2022-08-19T08:55:25;30.40;99.90
41435;DHT22;27177;22.262;114.192;2022-08-19T08:58:09;30.50;99.90
41435;DHT22;27177;22.262;114.192;2022-08-19T09:00:45;30.60;99.90
41435;DHT22;27177;22.262;114.192;2022-08-19T09:06:14;30.60;99.90
41435;DHT22;27177;22.262;114.192;2022-08-19T09:17:03;30.00;99.90
41435;DHT22;27177;22.262;114.192;2022-08-19T09:19:34;29.70;99.90
41435;DHT22;27177;22.262;114.192;2022-08-19T09:22:01;29.60;99.90
41435;DHT22;27177;22.262;114.192;2022-08-19T09:24:29;29.60;99.90
41435;DHT22;27177;22.262;114.192;2022-08-19T09:26:55;29.60;99.90
41435;DHT22;27177;22.262;114.192;2022-08-19T09:29:22;29.90;99.90
41435;DHT22;27177;22.262;114.192;2022-08-19T09:31:52;29.90;99.90
41435;DHT22;27177;22.262;114.192;2022-08-19T09:34:19;29.90;99.90
41435;DHT22;27177;22.262;114.192;2022-08-19T09:36:46;30.00;99.90
41435;DHT22;27177;22.262;114.192;2022-08-19T09:39:15;29.90;99.90
41435;DHT22;27177;22.262;114.192;2022-08-19T09:41:42;29.90;99.90
41435;DHT22;27177;22.262;114.192;2022-08-19T09:44:09;29.70;99.90
41435;DHT22;27177;22.262;114.192;2022-08-19T09:46:38;29.60;99.90
41435;DHT22;27177;22.262;114.192;2022-08-19T09:49:05;29.70;99.90
41435;DHT22;27177;22.262;114.192;2022-08-19T09:51:33;29.60;99.90
41435;DHT22;27177;22.262;114.192;2022-08-19T09:54:02;29.70;99.90
41435;DHT22;27177;22.262;114.192;2022-08-19T09:56:30;29.60;99.90
41435;DHT22;27177;22.262;114.192;2022-08-19T09:58:59;29.60;99.90
41435;DHT22;27177;22.262;114.192;2022-08-19T10:01:27;29.50;99.90
41435;DHT22;27177;22.262;114.192;2022-08-19T10:03:56;29.30;99.90
41435;DHT22;27177;22.262;114.192;2022-08-19T10:08:59;29.10;99.90
41435;DHT22;27177;22.262;114.192;2022-08-19T10:11:26;29.00;99.90
41435;DHT22;27177;22.262;114.192;2022-08-19T10:13:53;28.90;99.90
41435;DHT22;27177;22.262;114.192;2022-08-19T10:18:56;28.70;99.90
41435;DHT22;27177;22.262;114.192;2022-08-19T10:21:28;28.50;99.90
41435;DHT22;27177;22.262;114.192;2022-08-19T10:23:57;28.50;99.90
41435;DHT22;27177;22.262;114.192;2022-08-19T10:26:27;28.50;99.90
41435;DHT22;27177;22.262;114.192;2022-08-19T10:28:55;28.30;99.90
41435;DHT22;27177;22.262;114.192;2022-08-19T10:31:25;28.20;99.90
41435;DHT22;27177;22.262;114.192;2022-08-19T10:33:52;28.10;99.90
41435;DHT22;27177;22.262;114.192;2022-08-19T10:36:28;28.10;99.90
41435;DHT22;27177;22.262;114.192;2022-08-19T10:38:56;28.00;99.90
41435;DHT22;27177;22.262;114.192;2022-08-19T10:41:32;27.90;99.90
41435;DHT22;27177;22.262;114.192;2022-08-19T10:44:03;27.80;99.90
41435;DHT22;27177;22.262;114.192;2022-08-19T10:46:30;27.80;99.90
41435;DHT22;27177;22.262;114.192;2022-08-19T10:49:03;27.70;99.90
41435;DHT22;27177;22.262;114.192;2022-08-19T10:51:30;27.60;99.90
41435;DHT22;27177;22.262;114.192;2022-08-19T10:54:16;27.60;99.90
41435;DHT22;27177;22.262;114.192;2022-08-19T10:56:43;27.50;99.90
41435;DHT22;27177;22.262;114.192;2022-08-19T10:59:25;27.50;99.90
41435;DHT22;27177;22.262;114.192;2022-08-19T11:01:54;27.40;99.90
41435;DHT22;27177;22.262;114.192;2022-08-19T11:04:25;27.50;99.90
41435;DHT22;27177;22.262;114.192;2022-08-19T11:07:01;27.40;99.90
41435;DHT22;27177;22.262;114.192;2022-08-19T11:09:29;27.40;99.90
41435;DHT22;27177;22.262;114.192;2022-08-19T11:11:56;27.40;99.90
41435;DHT22;27177;22.262;114.192;2022-08-19T11:14:24;27.40;99.90
41435;DHT22;27177;22.262;114.192;2022-08-19T11:16:52;27.30;99.90
41435;DHT22;27177;22.262;114.192;2022-08-19T11:19:22;27.30;99.90
41435;DHT22;27177;22.262;114.192;2022-08-19T11:21:50;27.30;99.90
41435;DHT22;27177;22.262;114.192;2022-08-19T11:24:21;27.30;99.90
41435;DHT22;27177;22.262;114.192;2022-08-19T11:26:49;27.30;99.90
41435;DHT22;27177;22.262;114.192;2022-08-19T11:29:18;27.20;99.90
41435;DHT22;27177;22.262;114.192;2022-08-19T11:31:49;27.20;99.90
41435;DHT22;27177;22.262;114.192;2022-08-19T11:34:19;27.20;99.90
41435;DHT22;27177;22.262;114.192;2022-08-19T11:36:46;27.20;99.90
41435;DHT22;27177;22.262;114.192;2022-08-19T11:39:15;27.20;99.90
41435;DHT22;27177;22.262;114.192;2022-08-19T11:41:42;27.10;99.90
41435;DHT22;27177;22.262;114.192;2022-08-19T11:44:09;27.10;99.90
41435;DHT22;27177;22.262;114.192;2022-08-19T11:46:37;27.10;99.90
41435;DHT22;27177;22.262;114.192;2022-08-19T11:49:05;27.10;99.90
41435;DHT22;27177;22.262;114.192;2022-08-19T11:51:35;27.10;99.90
41435;DHT22;27177;22.262;114.192;2022-08-19T11:54:04;27.10;99.90
41435;DHT22;27177;22.262;114.192;2022-08-19T11:56:32;27.20;99.90
41435;DHT22;27177;22.262;114.192;2022-08-19T11:59:00;27.20;99.90
41435;DHT22;27177;22.262;114.192;2022-08-19T12:01:28;27.10;99.90
41435;DHT22;27177;22.262;114.192;2022-08-19T12:03:55;27.10;99.90
41435;DHT22;27177;22.262;114.192;2022-08-19T12:06:28;27.20;99.90
41435;DHT22;27177;22.262;114.192;2022-08-19T12:08:57;27.10;99.90
41435;DHT22;27177;22.262;114.192;2022-08-19T12:11:24;27.10;99.90
41435;DHT22;27177;22.262;114.192;2022-08-19T12:13:51;27.10;99.90
41435;DHT22;27177;22.262;114.192;2022-08-19T12:16:23;27.10;99.90
41435;DHT22;27177;22.262;114.192;2022-08-19T12:18:51;27.20;99.90
41435;DHT22;27177;22.262;114.192;2022-08-19T12:21:21;27.10;99.90
41435;DHT22;27177;22.262;114.192;2022-08-19T12:23:49;27.10;99.90
41435;DHT22;27177;22.262;114.192;2022-08-19T12:26:17;27.10;99.90
41435;DHT22;27177;22.262;114.192;2022-08-19T12:28:44;27.10;99.90
41435;DHT22;27177;22.262;114.192;2022-08-19T12:31:11;27.10;99.90
41435;DHT22;27177;22.262;114.192;2022-08-19T12:33:39;27.00;99.90
41435;DHT22;27177;22.262;114.192;2022-08-19T12:36:09;27.00;99.90
41435;DHT22;27177;22.262;114.192;2022-08-19T12:38:37;27.00;99.90
41435;DHT22;27177;22.262;114.192;2022-08-19T12:41:06;27.00;99.90
41435;DHT22;27177;22.262;114.192;2022-08-19T12:43:34;27.00;99.90
41435;DHT22;27177;22.262;114.192;2022-08-19T12:46:04;27.00;99.90
41435;DHT22;27177;22.262;114.192;2022-08-19T12:48:32;27.00;99.90
41435;DHT22;27177;22.262;114.192;2022-08-19T12:50:59;27.00;99.90
41435;DHT22;27177;22.262;114.192;2022-08-19T12:53:26;27.00;99.90
41435;DHT22;27177;22.262;114.192;2022-08-19T12:56:00;27.00;99.90
41435;DHT22;27177;22.262;114.192;2022-08-19T12:58:29;27.00;99.90
41435;DHT22;27177;22.262;114.192;2022-08-19T13:01:05;27.00;99.90
41435;DHT22;27177;22.262;114.192;2022-08-19T13:03:32;27.00;99.90
41435;DHT22;27177;22.262;114.192;2022-08-19T13:05:59;27.00;99.90
41435;DHT22;27177;22.262;114.192;2022-08-19T13:08:25;27.00;99.90
41435;DHT22;27177;22.262;114.192;2022-08-19T13:10:55;27.00;99.90
41435;DHT22;27177;22.262;114.192;2022-08-19T13:13:24;27.00;99.90
41435;DHT22;27177;22.262;114.192;2022-08-19T13:15:51;27.00;99.90
41435;DHT22;27177;22.262;114.192;2022-08-19T13:18:19;27.00;99.90
41435;DHT22;27177;22.262;114.192;2022-08-19T13:20:45;27.00;99.90
41435;DHT22;27177;22.262;114.192;2022-08-19T13:23:12;27.00;99.90
41435;DHT22;27177;22.262;114.192;2022-08-19T13:25:39;27.00;99.90
41435;DHT22;27177;22.262;114.192;2022-08-19T13:28:05;27.00;99.90
41435;DHT22;27177;22.262;114.192;2022-08-19T13:30:33;27.00;99.90
41435;DHT22;27177;22.262;114.192;2022-08-19T13:33:17;27.00;99.90
41435;DHT22;27177;22.262;114.192;2022-08-19T13:38:14;27.00;99.90
41435;DHT22;27177;22.262;114.192;2022-08-19T13:40:42;27.00;99.90
41435;DHT22;27177;22.262;114.192;2022-08-19T13:43:09;27.00;99.90
41435;DHT22;27177;22.262;114.192;2022-08-19T13:45:36;27.00;99.90
41435;DHT22;27177;22.262;114.192;2022-08-19T13:48:06;27.00;99.90
41435;DHT22;27177;22.262;114.192;2022-08-19T13:50:39;27.00;99.90
41435;DHT22;27177;22.262;114.192;2022-08-19T13:53:09;27.00;99.90
41435;DHT22;27177;22.262;114.192;2022-08-19T13:55:41;27.00;99.90
41435;DHT22;27177;22.262;114.192;2022-08-19T13:58:09;27.00;99.90
41435;DHT22;27177;22.262;114.192;2022-08-19T14:00:40;27.00;99.90
41435;DHT22;27177;22.262;114.192;2022-08-19T14:03:07;27.00;99.90
41435;DHT22;27177;22.262;114.192;2022-08-19T14:05:35;26.90;99.90
41435;DHT22;27177;22.262;114.192;2022-08-19T14:08:02;27.00;99.90
41435;DHT22;27177;22.262;114.192;2022-08-19T14:10:30;27.00;99.90
41435;DHT22;27177;22.262;114.192;2022-08-19T14:13:00;26.90;99.90
41435;DHT22;27177;22.262;114.192;2022-08-19T14:15:28;26.70;99.90
41435;DHT22;27177;22.262;114.192;2022-08-19T14:17:56;26.70;99.90
41435;DHT22;27177;22.262;114.192;2022-08-19T14:20:23;26.70;99.90
41435;DHT22;27177;22.262;114.192;2022-08-19T14:22:50;26.60;99.90
41435;DHT22;27177;22.262;114.192;2022-08-19T14:25:22;26.50;99.90
41435;DHT22;27177;22.262;114.192;2022-08-19T14:27:50;26.50;99.90
41435;DHT22;27177;22.262;114.192;2022-08-19T14:30:20;26.50;99.90
41435;DHT22;27177;22.262;114.192;2022-08-19T14:32:50;26.50;99.90
41435;DHT22;27177;22.262;114.192;2022-08-19T14:35:21;26.40;99.90
41435;DHT22;27177;22.262;114.192;2022-08-19T14:37:49;26.50;99.90
41435;DHT22;27177;22.262;114.192;2022-08-19T14:40:19;26.40;99.90
41435;DHT22;27177;22.262;114.192;2022-08-19T14:42:57;26.40;99.90
41435;DHT22;27177;22.262;114.192;2022-08-19T14:45:30;26.50;99.90
41435;DHT22;27177;22.262;114.192;2022-08-19T14:47:57;26.50;99.90
41435;DHT22;27177;22.262;114.192;2022-08-19T14:50:26;26.50;99.90
41435;DHT22;27177;22.262;114.192;2022-08-19T14:53:02;26.50;99.90
41435;DHT22;27177;22.262;114.192;2022-08-19T14:55:30;26.50;99.90
41435;DHT22;27177;22.262;114.192;2022-08-19T14:57:58;26.50;99.90
41435;DHT22;27177;22.262;114.192;2022-08-19T15:00:26;26.50;99.90
41435;DHT22;27177;22.262;114.192;2022-08-19T15:02:53;26.50;99.90
41435;DHT22;27177;22.262;114.192;2022-08-19T15:05:20;26.50;99.90
41435;DHT22;27177;22.262;114.192;2022-08-19T15:07:47;26.50;99.90
41435;DHT22;27177;22.262;114.192;2022-08-19T15:10:18;26.50;99.90
41435;DHT22;27177;22.262;114.192;2022-08-19T15:15:20;26.50;99.90
41435;DHT22;27177;22.262;114.192;2022-08-19T15:20:22;26.50;99.90
41435;DHT22;27177;22.262;114.192;2022-08-19T15:22:48;26.50;99.90
41435;DHT22;27177;22.262;114.192;2022-08-19T15:25:17;26.60;99.90
41435;DHT22;27177;22.262;114.192;2022-08-19T15:27:44;26.50;99.90
41435;DHT22;27177;22.262;114.192;2022-08-19T15:30:12;26.60;99.90
41435;DHT22;27177;22.262;114.192;2022-08-19T15:32:39;26.60;99.90
41435;DHT22;27177;22.262;114.192;2022-08-19T15:35:07;26.60;99.90
41435;DHT22;27177;22.262;114.192;2022-08-19T15:37:33;26.60;99.90
41435;DHT22;27177;22.262;114.192;2022-08-19T15:40:00;26.60;99.90
41435;DHT22;27177;22.262;114.192;2022-08-19T15:42:27;26.60;99.90
41435;DHT22;27177;22.262;114.192;2022-08-19T15:45:05;26.60;99.90
41435;DHT22;27177;22.262;114.192;2022-08-19T15:47:32;26.60;99.90
41435;DHT22;27177;22.262;114.192;2022-08-19T15:49:58;26.60;99.90
41435;DHT22;27177;22.262;114.192;2022-08-19T15:52:25;26.50;99.90
41435;DHT22;27177;22.262;114.192;2022-08-19T15:54:52;26.50;99.90
41435;DHT22;27177;22.262;114.192;2022-08-19T15:57:19;26.50;99.90
41435;DHT22;27177;22.262;114.192;2022-08-19T15:59:52;26.50;99.90
41435;DHT22;27177;22.262;114.192;2022-08-19T16:02:37;26.50;99.90
41435;DHT22;27177;22.262;114.192;2022-08-19T16:05:24;26.50;99.90
41435;DHT22;27177;22.262;114.192;2022-08-19T16:08:10;26.50;99.90
41435;DHT22;27177;22.262;114.192;2022-08-19T16:10:37;26.40;99.90
41435;DHT22;27177;22.262;114.192;2022-08-19T16:13:05;26.40;99.90
41435;DHT22;27177;22.262;114.192;2022-08-19T16:15:32;26.40;99.90
41435;DHT22;27177;22.262;114.192;2022-08-19T16:17:59;26.30;99.90
41435;DHT22;27177;22.262;114.192;2022-08-19T16:20:30;26.30;99.90